Ronald Reagan Washington National

Airport
ICAO code: 
KDCA
IATA Code: 
DCA
Summary
ICAO Region: 
NAM
Territory: 
Location: 
Washington, D.C., Arlington County, Virginia, District of Colombia
Serving: 
Washington D.C.
Elevation: 
15 ft
Coordinates: 
Aerial View: 
38° 51' 6.998" N, 77° 2' 15" W
Metar
Observation
KDCA 021552Z 21007KT 10SM CLR 12/04 A2985 RMK AO2 SLP108 T01220039
Station
Washington DC, Reagan National Airport
Date/Time
2021-12-02 15:52:00
Wind direction
210°
Wind speed
07 kts
Lowest cloud amount
n/a
Temperature
12.2°C
Dew point
3.9°C
Humidity
56%
Weather condition
n/a

Description

Ronald Reagan Washington National Airport (IATA: DCA) is a public airport located 4.8 km south of downtown Washington, D.C., in Arlington County, Virginia.

Climatology

Humid “subtropical” climate (Köppen climate classification Cfa) - characterized by hot, humid summers and cool winters. Significant amounts of precipitation occur in all seasons in most areas. Winter rainfall (and sometimes snowfall) is associated with large storms that the westerlies steer from west to east. Most summer rainfall occurs during thunderstorms and occasional tropical storms (hurricanes).

Runways

Designator Length Width Surface Rops
4/22 1497 46 ASP Yes/Yes
15/33 1586 46 ASP Yes/Yes
1/19 2094 46 ASP Yes/Yes
Airport map: 
Aerial View: 

Accidents and Serious Incidents at or in the vicinity of KDCA

SKYbrary Partners:

Safety knowledge contributed by: